| time (UTC) | temp F | wind direction | speed knots | gust knots | rain 1hr in | rain 24hr in | rain mn in | humidity % | barometer mb |
| 20260507203326 | 50 | 166 | 1.7 | 3.5 | 0.00 | 0.00 | 0.00 | 79 | 1001.7 |
| 20260507201825 | 50 | 169 | 1.7 | 2.6 | 0.00 | 0.00 | 0.00 | 81 | 1001.4 |
| 20260507200325 | 50 | 165 | 0.9 | 0.9 | 0.00 | 0.00 | 0.00 | 78 | 1001.4 |
| 20260507194826 | 51 | 174 | 2.6 | 2.6 | 0.00 | 0.00 | 0.00 | 76 | 1001.4 |
| 20260507193328 | 51 | 145 | 0.0 | 0.0 | 0.00 | 0.00 | 0.00 | 72 | 1001.4 |
| 20260507191826 | 52 | 186 | 1.7 | 1.7 | 0.00 | 0.00 | 0.00 | 71 | 1001.4 |
| 20260507190328 | 52 | 162 | 0.0 | 0.0 | 0.00 | 0.00 | 0.00 | 73 | 1001.4 |
| 20260507184825 | 53 | 182 | 0.0 | 0.0 | 0.00 | 0.00 | 0.00 | 71 | 1001.0 |
| 20260507183329 | 54 | 189 | 0.0 | 0.9 | 0.00 | 0.00 | 0.00 | 67 | 1001.0 |
| 20260507181825 | 54 | 179 | 0.0 | 0.9 | 0.00 | 0.00 | 0.00 | 65 | 1000.7 |
| 20260507180326 | 54 | 199 | 0.0 | 0.0 | 0.00 | 0.00 | 0.00 | 66 | 1000.7 |
| 20260507174827 | 55 | 170 | 0.0 | 0.0 | 0.00 | 0.00 | 0.00 | 65 | 1001.0 |
| 20260507173326 | 55 | 179 | 0.0 | 0.0 | 0.00 | 0.00 | 0.00 | 65 | 1001.0 |
| 20260507171825 | 55 | 184 | 0.0 | 0.9 | 0.00 | 0.00 | 0.00 | 61 | 1001.0 |
| 20260507170328 | 56 | 145 | 0.9 | 0.9 | 0.00 | 0.00 | 0.00 | 60 | 1001.0 |
| 20260507164825 | 56 | 188 | 1.7 | 2.6 | 0.00 | 0.00 | 0.00 | 59 | 1001.0 |
| 20260507163325 | 56 | 198 | 1.7 | 1.7 | 0.00 | 0.00 | 0.00 | 58 | 1001.0 |
| 20260507161826 | 56 | 198 | 2.6 | 2.6 | 0.00 | 0.00 | 0.00 | 58 | 1001.0 |
| 20260507160328 | 57 | 136 | 0.0 | 0.9 | 0.00 | 0.00 | 0.00 | 57 | 1001.0 |
| 20260507154825 | 57 | 147 | 0.9 | 1.7 | 0.00 | 0.00 | 0.00 | 57 | 1001.0 |
| 20260507153324 | 56 | 170 | 1.7 | 1.7 | 0.00 | 0.00 | 0.00 | 58 | 1001.0 |
| 20260507151825 | 56 | 169 | 1.7 | 1.7 | 0.00 | 0.00 | 0.00 | 59 | 1001.4 |
| 20260507150324 | 56 | 147 | 0.9 | 1.7 | 0.00 | 0.00 | 0.00 | 58 | 1001.4 |
| 20260507144827 | 56 | 122 | 1.7 | 2.6 | 0.00 | 0.00 | 0.00 | 61 | 1001.4 |
| 20260507143327 | 56 | 172 | 1.7 | 5.2 | 0.00 | 0.00 | 0.00 | 60 | 1001.7 |
| 20260507141825 | 55 | 194 | 3.5 | 6.1 | 0.00 | 0.00 | 0.00 | 61 | 1002.0 |
| 20260507140325 | 54 | 191 | 3.5 | 3.5 | 0.00 | 0.00 | 0.00 | 63 | 1002.0 |
| 20260507134825 | 53 | 139 | 0.9 | 1.7 | 0.00 | 0.00 | 0.00 | 64 | 1002.0 |
| 20260507133325 | 52 | 137 | 1.7 | 1.7 | 0.00 | 0.00 | 0.00 | 65 | 1002.0 |
| 20260507131825 | 52 | 185 | 2.6 | 3.5 | 0.00 | 0.00 | 0.00 | 65 | 1002.0 |
| 20260507130327 | 51 | 163 | 1.7 | 2.6 | 0.00 | 0.00 | 0.00 | 65 | 1002.4 |
| 20260507124825 | 50 | 170 | 0.0 | 0.0 | 0.00 | 0.00 | 0.00 | 69 | 1002.4 |
| 20260507123326 | 50 | 122 | 0.9 | 1.7 | 0.00 | 0.00 | 0.00 | 72 | 1002.4 |
| 20260507121825 | 50 | 164 | 4.3 | 5.2 | 0.00 | 0.00 | 0.00 | 69 | 1002.0 |
| 20260507120325 | 50 | 110 | 6.1 | 7.8 | 0.00 | 0.00 | 0.00 | 69 | 1002.0 |
| 20260507114825 | 50 | 122 | 1.7 | 2.6 | 0.00 | 0.00 | 0.00 | 71 | 1002.4 |
| 20260507113325 | 50 | 124 | 1.7 | 1.7 | 0.00 | 0.00 | 0.00 | 73 | 1002.4 |
| 20260507111826 | 50 | 90 | 1.7 | 3.5 | 0.00 | 0.00 | 0.00 | 72 | 1002.4 |
| 20260507110325 | 50 | 169 | 3.5 | 5.2 | 0.00 | 0.00 | 0.00 | 71 | 1002.4 |
| 20260507104826 | 51 | 123 | 2.6 | 6.1 | 0.00 | 0.00 | 0.00 | 71 | 1002.4 |
| 20260507103325 | 50 | 122 | 0.0 | 0.0 | 0.00 | 0.00 | 0.00 | 72 | 1002.4 |
| 20260507101825 | 50 | 127 | 0.9 | 1.7 | 0.00 | 0.00 | 0.00 | 72 | 1002.7 |
| 20260507100325 | 50 | 145 | 1.7 | 1.7 | 0.00 | 0.00 | 0.00 | 74 | 1002.7 |
| 20260507094826 | 51 | 143 | 1.7 | 1.7 | 0.00 | 0.00 | 0.00 | 73 | 1002.7 |
| 20260507093325 | 50 | 80 | 1.7 | 3.5 | 0.00 | 0.00 | 0.00 | 73 | 1002.4 |
| 20260507091825 | 49 | 85 | 2.6 | 2.6 | 0.00 | 0.00 | 0.00 | 75 | 1002.4 |
| 20260507090326 | 49 | 99 | 1.7 | 2.6 | 0.00 | 0.00 | 0.00 | 74 | 1002.4 |
| 20260507084825 | 48 | 108 | 1.7 | 1.7 | 0.00 | 0.00 | 0.00 | 75 | 1002.4 |
| 20260507083326 | 48 | 108 | 1.7 | 6.1 | 0.00 | 0.00 | 0.00 | 74 | 1002.4 |
| 20260507081824 | 47 | 109 | 2.6 | 3.5 | 0.00 | 0.00 | 0.00 | 75 | 1002.4 |
| 20260507080325 | 46 | 121 | 2.6 | 3.5 | 0.00 | 0.00 | 0.00 | 76 | 1002.7 |
| 20260507074826 | 46 | 125 | 0.0 | 0.0 | 0.00 | 0.00 | 0.00 | 77 | 1002.4 |
| 20260507073325 | 45 | 109 | 0.9 | 1.7 | 0.00 | 0.00 | 0.00 | 77 | 1002.7 |
| 20260507071825 | 45 | 138 | 0.0 | 0.9 | 0.00 | 0.00 | 0.00 | 77 | 1002.4 |
| 20260507070326 | 44 | 137 | 1.7 | 2.6 | 0.00 | 0.00 | 0.00 | 78 | 1002.4 |
| 20260507064827 | 44 | 102 | 4.3 | 7.0 | 0.00 | 0.00 | 0.00 | 78 | 1002.4 |
| 20260507063326 | 43 | 146 | 0.9 | 0.9 | 0.00 | 0.00 | 0.00 | 79 | 1002.4 |
| 20260507061826 | 43 | 120 | 2.6 | 5.2 | 0.00 | 0.00 | 0.00 | 79 | 1002.4 |
| 20260507060325 | 42 | 107 | 3.5 | 6.1 | 0.00 | 0.00 | 0.00 | 81 | 1002.4 |
| 20260507054825 | 42 | 111 | 1.7 | 1.7 | 0.00 | 0.00 | 0.00 | 83 | 1002.0 |
| 20260507053324 | 41 | 159 | 1.7 | 2.6 | 0.00 | 0.00 | 0.00 | 83 | 1002.0 |
| 20260507051825 | 42 | 153 | 1.7 | 2.6 | 0.00 | 0.00 | 0.00 | 82 | 1002.0 |
| 20260507050325 | 42 | 112 | 1.7 | 3.5 | 0.00 | 0.00 | 0.00 | 83 | 1002.0 |
| 20260507044825 | 41 | 103 | 1.7 | 1.7 | 0.00 | 0.00 | 0.00 | 83 | 1002.0 |
| 20260507043325 | 41 | 134 | 0.9 | 1.7 | 0.00 | 0.00 | 0.00 | 83 | 1002.4 |
| 20260507041826 | 41 | 94 | 3.5 | 5.2 | 0.00 | 0.00 | 0.00 | 83 | 1002.0 |
| 20260507040325 | 41 | 142 | 2.6 | 5.2 | 0.00 | 0.00 | 0.00 | 83 | 1002.0 |
| 20260507034824 | 41 | 113 | 1.7 | 2.6 | 0.00 | 0.00 | 0.00 | 83 | 1002.0 |
| 20260507033325 | 41 | 85 | 0.9 | 1.7 | 0.00 | 0.00 | 0.00 | 83 | 1002.0 |
| 20260507031824 | 41 | 85 | 1.7 | 2.6 | 0.00 | 0.00 | 0.00 | 84 | 1002.0 |
| 20260507030326 | 41 | 143 | 1.7 | 1.7 | 0.00 | 0.00 | 0.00 | 84 | 1002.0 |
| 20260507024825 | 41 | 124 | 1.7 | 1.7 | 0.00 | 0.00 | 0.00 | 84 | 1002.4 |
| 20260507023325 | 41 | 95 | 1.7 | 2.6 | 0.00 | 0.00 | 0.00 | 84 | 1002.4 |
| 20260507021825 | 41 | 142 | 2.6 | 3.5 | 0.00 | 0.00 | 0.00 | 85 | 1002.4 |
| 20260507020326 | 41 | 137 | 2.6 | 5.2 | 0.00 | 0.00 | 0.00 | 85 | 1002.4 |
| 20260507014826 | 40 | 78 | 1.7 | 3.5 | 0.00 | 0.00 | 0.00 | 86 | 1002.4 |
| 20260507013325 | 40 | 119 | 0.9 | 1.7 | 0.00 | 0.00 | 0.00 | 86 | 1002.4 |
| 20260507011825 | 40 | 106 | 0.9 | 2.6 | 0.00 | 0.00 | 0.00 | 85 | 1002.4 |
| 20260507010326 | 40 | 135 | 0.9 | 2.6 | 0.00 | 0.00 | 0.00 | 85 | 1002.4 |
| 20260507004825 | 40 | 101 | 2.6 | 3.5 | 0.00 | 0.00 | 0.00 | 85 | 1002.4 |
| 20260507003325 | 40 | 130 | 0.0 | 0.0 | 0.00 | 0.00 | 0.00 | 85 | 1002.7 |
| 20260507001825 | 40 | 110 | 3.5 | 5.2 | 0.00 | 0.00 | 0.00 | 85 | 1002.7 |
| 20260507000328 | 39 | 121 | 0.9 | 0.9 | 0.00 | 0.00 | 0.00 | 85 | 1002.7 |
| 20260506234825 | 40 | 172 | 1.7 | 1.7 | 0.00 | 0.00 | 0.00 | 84 | 1002.7 |
| 20260506233325 | 39 | 83 | 4.3 | 6.1 | 0.00 | 0.00 | 0.00 | 84 | 1002.7 |
| 20260506231826 | 39 | 119 | 0.9 | 1.7 | 0.00 | 0.00 | 0.00 | 85 | 1002.7 |
| 20260506230325 | 39 | 113 | 0.9 | 1.7 | 0.00 | 0.00 | 0.00 | 84 | 1002.7 |
| 20260506224825 | 40 | 130 | 1.7 | 2.6 | 0.00 | 0.00 | 0.00 | 83 | 1002.7 |
| 20260506223325 | 40 | 149 | 0.9 | 1.7 | 0.00 | 0.00 | 0.00 | 82 | 1002.7 |
| 20260506221825 | 40 | 154 | 3.5 | 5.2 | 0.00 | 0.00 | 0.00 | 82 | 1002.7 |
| 20260506220325 | 40 | 94 | 1.7 | 2.6 | 0.00 | 0.00 | 0.00 | 83 | 1002.7 |
| 20260506214825 | 40 | 117 | 2.6 | 3.5 | 0.00 | 0.00 | 0.00 | 82 | 1002.7 |
| 20260506213325 | 40 | 120 | 1.7 | 2.6 | 0.00 | 0.00 | 0.00 | 80 | 1002.7 |
| 20260506211825 | 40 | 103 | 3.5 | 5.2 | 0.00 | 0.00 | 0.00 | 80 | 1002.7 |
| 20260506210326 | 41 | 121 | 1.7 | 1.7 | 0.00 | 0.00 | 0.00 | 78 | 1002.7 |
| 20260506204825 | 41 | 170 | 1.7 | 2.6 | 0.00 | 0.00 | 0.00 | 77 | 1002.4 |